Time;durP1;ratioP1;P1;durP2;ratioP2;P2;SDS_P1;SDS_P2;PMS_P1;PMS_P2;Temp;Humidity;BMP_temperature;BMP_pressure;BME280_temperature;BME280_humidity;BME280_pressure;Samples;Min_cycle;Max_cycle;Signal;HPM_P1;HPM_P2
2021/12/28 00:01:52;;;;;;;9.55;4.90;;;;;;;-141.50;100.00;63355.56;5086405;28;20051;-81
2021/12/28 00:04:18;;;;;;;8.48;4.32;;;;;;;-141.50;100.00;63355.56;5089274;28;20399;-81
2021/12/28 00:06:45;;;;;;;8.98;4.32;;;;;;;-141.50;100.00;63355.56;5091001;28;20109;-80
2021/12/28 00:09:11;;;;;;;7.25;4.25;;;;;;;-141.50;100.00;63355.56;5090713;28;20055;-81
2021/12/28 00:11:38;;;;;;;9.98;4.53;;;;;;;-141.50;100.00;63355.56;5090652;28;20117;-79
2021/12/28 00:14:06;;;;;;;8.30;4.50;;;;;;;-141.50;100.00;63355.56;5091293;28;20047;-81
2021/12/28 00:19:18;;;;;;;11.90;4.63;;;;;;;-141.50;100.00;63355.56;5091162;28;20048;-77
2021/12/28 00:21:46;;;;;;;9.82;5.20;;;;;;;-141.50;100.00;63355.56;5092731;28;20048;-81
2021/12/28 00:24:13;;;;;;;10.30;4.97;;;;;;;-141.50;100.00;63355.56;5103599;28;20058;-80
2021/12/28 00:26:39;;;;;;;10.20;5.20;;;;;;;-141.50;100.00;63355.56;5112310;28;20048;-82
2021/12/28 00:29:06;;;;;;;11.35;5.43;;;;;;;-141.50;100.00;63355.56;5103657;28;20056;-78
2021/12/28 00:31:32;;;;;;;11.60;5.13;;;;;;;-141.50;100.00;63355.56;5091197;28;20062;-81
2021/12/28 00:33:59;;;;;;;10.43;5.13;;;;;;;-141.50;100.00;63355.56;5090723;28;20537;-82
2021/12/28 00:36:26;;;;;;;12.02;5.40;;;;;;;-141.50;100.00;63355.56;5091861;28;20079;-80
2021/12/28 00:38:52;;;;;;;13.60;5.70;;;;;;;-141.50;100.00;63355.56;5090808;28;20081;-79
2021/12/28 00:41:20;;;;;;;10.32;5.40;;;;;;;-141.50;100.00;63355.56;5091698;28;20047;-84
2021/12/28 00:43:47;;;;;;;9.82;5.60;;;;;;;-141.50;100.00;63355.56;5091179;28;20048;-80
2021/12/28 00:46:13;;;;;;;10.93;5.63;;;;;;;-141.50;100.00;63355.56;5088837;28;20075;-80
2021/12/28 00:48:40;;;;;;;11.05;6.00;;;;;;;-141.50;100.00;63355.56;5089454;28;20048;-78
2021/12/28 00:51:07;;;;;;;12.85;6.45;;;;;;;-141.50;100.00;63355.56;5088727;28;20048;-80
2021/12/28 00:53:33;;;;;;;12.73;6.30;;;;;;;-141.50;100.00;63355.56;5090072;28;20385;-80
2021/12/28 00:56:00;;;;;;;11.40;5.78;;;;;;;-141.50;100.00;63355.56;5089324;28;20410;-80
2021/12/28 00:58:28;;;;;;;11.18;6.10;;;;;;;-141.50;100.00;63355.56;5088984;28;20089;-79
2021/12/28 01:00:55;;;;;;;11.13;6.00;;;;;;;-141.50;100.00;63355.56;5089998;28;20540;-79
2021/12/28 01:03:22;;;;;;;12.13;6.57;;;;;;;-141.50;100.00;63355.56;5089072;28;20492;-79
2021/12/28 01:05:50;;;;;;;13.85;7.07;;;;;;;-141.50;100.00;63355.56;5089955;28;20165;-78
2021/12/28 01:08:16;;;;;;;13.68;7.30;;;;;;;-141.50;100.00;63355.56;5088655;28;20094;-80
2021/12/28 01:10:49;;;;;;;16.35;7.45;;;;;;;-141.50;100.00;63355.56;5088472;28;20052;-80
2021/12/28 01:13:17;;;;;;;15.65;7.72;;;;;;;-141.50;100.00;63355.56;5089992;28;20187;-81
2021/12/28 01:15:44;;;;;;;13.43;7.38;;;;;;;-141.50;100.00;63355.56;5089087;28;20610;-80
2021/12/28 01:18:12;;;;;;;16.45;8.32;;;;;;;-141.50;100.00;63355.56;5088724;28;20502;-78
2021/12/28 01:20:41;;;;;;;16.77;7.63;;;;;;;-141.50;100.00;63355.56;5091641;28;20046;-80
2021/12/28 01:23:08;;;;;;;16.38;7.75;;;;;;;-141.50;100.00;63355.56;5090680;28;20056;-80
2021/12/28 01:25:35;;;;;;;16.50;8.25;;;;;;;-141.50;100.00;63355.56;5094105;28;20094;-79
2021/12/28 01:28:02;;;;;;;16.73;8.00;;;;;;;-141.50;100.00;63355.56;5094730;28;20109;-79
2021/12/28 01:30:31;;;;;;;15.77;8.35;;;;;;;-141.50;100.00;63355.56;5092143;28;20071;-81
2021/12/28 01:33:00;;;;;;;17.08;7.82;;;;;;;-141.50;100.00;63355.56;5093736;28;20074;-79
2021/12/28 01:35:29;;;;;;;17.90;8.18;;;;;;;-141.50;100.00;63355.56;5096257;28;20048;-80
2021/12/28 01:37:56;;;;;;;15.02;7.65;;;;;;;-141.50;100.00;63355.56;5093629;28;20122;-81
2021/12/28 01:40:26;;;;;;;14.45;7.47;;;;;;;-141.50;100.00;63355.56;5090046;28;20117;-79
2021/12/28 01:43:12;;;;;;;14.93;7.53;;;;;;;-141.50;100.00;63355.56;5091743;28;20075;-80
2021/12/28 01:45:54;;;;;;;14.95;8.10;;;;;;;-141.50;100.00;63355.56;5089608;28;20068;-80
2021/12/28 01:48:34;;;;;;;16.77;7.93;;;;;;;-141.50;100.00;63355.56;5091111;28;20464;-82
2021/12/28 01:51:07;;;;;;;15.25;7.88;;;;;;;-141.50;100.00;63355.56;5091717;28;20052;-81
2021/12/28 01:53:34;;;;;;;15.60;7.18;;;;;;;-141.50;100.00;63355.56;5094026;28;20074;-81
2021/12/28 01:56:08;;;;;;;14.40;7.07;;;;;;;-141.50;100.00;63355.56;5093854;28;20074;-79
2021/12/28 01:58:35;;;;;;;12.32;6.07;;;;;;;-141.50;100.00;63355.56;5089594;28;20123;-81
2021/12/28 02:01:04;;;;;;;10.52;5.80;;;;;;;-141.50;100.00;63355.56;5091287;28;20145;-81
2021/12/28 02:03:32;;;;;;;11.88;6.22;;;;;;;-141.50;100.00;63355.56;5087692;28;20067;-78
2021/12/28 02:05:59;;;;;;;12.75;6.28;;;;;;;-141.50;100.00;63355.56;5092495;28;20044;-80
2021/12/28 02:08:26;;;;;;;10.60;5.72;;;;;;;-141.50;100.00;63355.56;5089856;28;20079;-79
2021/12/28 02:10:55;;;;;;;11.15;5.22;;;;;;;-141.50;100.00;63355.56;5092119;28;20047;-78
2021/12/28 02:13:23;;;;;;;11.77;5.65;;;;;;;-141.50;100.00;63355.56;5091639;28;20051;-80
2021/12/28 02:15:50;;;;;;;9.95;5.60;;;;;;;-141.50;100.00;63355.56;5091745;28;20048;-79
2021/12/28 02:18:21;;;;;;;11.45;6.25;;;;;;;-141.50;100.00;63355.56;5090712;28;20099;-79
2021/12/28 02:20:48;;;;;;;11.02;6.32;;;;;;;-141.50;100.00;63355.56;5092793;28;20056;-79
2021/12/28 02:23:15;;;;;;;13.10;6.72;;;;;;;-141.50;100.00;63355.56;5092342;28;20054;-80
2021/12/28 02:25:42;;;;;;;12.60;6.80;;;;;;;-141.50;100.00;63355.56;5091071;28;20139;-78
2021/12/28 02:28:10;;;;;;;15.43;7.75;;;;;;;-141.50;100.00;63355.56;5090915;28;20087;-76
2021/12/28 02:30:39;;;;;;;16.20;7.78;;;;;;;-141.50;100.00;63355.56;5089603;28;20083;-79
2021/12/28 02:33:06;;;;;;;17.77;8.23;;;;;;;-141.50;100.00;63355.56;5091705;28;20161;-78
2021/12/28 02:35:34;;;;;;;18.95;8.48;;;;;;;-141.50;100.00;63355.56;5090905;28;20473;-79
2021/12/28 02:38:01;;;;;;;18.42;8.88;;;;;;;-141.50;100.00;63355.56;5091428;28;20052;-79
2021/12/28 02:40:30;;;;;;;18.38;9.15;;;;;;;-141.50;100.00;63355.56;5086887;28;20125;-79
2021/12/28 02:42:58;;;;;;;20.38;9.90;;;;;;;-141.50;100.00;63355.56;5070144;28;20091;-79
2021/12/28 02:45:28;;;;;;;19.58;9.40;;;;;;;-141.50;100.00;63355.56;5077720;28;20055;-80
2021/12/28 02:47:55;;;;;;;23.13;10.48;;;;;;;-141.50;100.00;63355.56;5079680;28;20055;-81
2021/12/28 02:50:44;;;;;;;20.67;10.60;;;;;;;-141.50;100.00;63355.56;5077525;28;20072;-76
2021/12/28 02:53:11;;;;;;;21.40;10.68;;;;;;;-141.50;100.00;63355.56;5087309;28;20048;-81
2021/12/28 02:55:39;;;;;;;24.20;11.75;;;;;;;-141.50;100.00;63355.56;5092048;28;20051;-79
2021/12/28 02:58:10;;;;;;;24.77;11.48;;;;;;;-141.50;100.00;63355.56;5090666;28;20052;-79
2021/12/28 03:00:46;;;;;;;23.90;11.23;;;;;;;-141.50;100.00;63355.56;5089889;28;20112;-80
2021/12/28 03:03:18;;;;;;;25.33;11.75;;;;;;;-141.50;100.00;63355.56;5089031;28;20048;-82
2021/12/28 03:05:48;;;;;;;26.55;12.55;;;;;;;-141.50;100.00;63355.56;5090433;28;20078;-81
2021/12/28 03:08:17;;;;;;;25.83;12.85;;;;;;;-141.50;100.00;63355.56;5090363;28;20078;-80
2021/12/28 03:10:46;;;;;;;26.10;12.63;;;;;;;-141.50;100.00;63355.56;5089982;28;20052;-80
2021/12/28 03:13:21;;;;;;;24.83;12.23;;;;;;;-141.50;100.00;63355.56;5092068;28;20080;-78
2021/12/28 03:15:48;;;;;;;25.30;13.15;;;;;;;-141.50;100.00;63355.56;5088837;28;20072;-78
2021/12/28 03:18:15;;;;;;;26.85;12.73;;;;;;;-141.50;100.00;63355.56;5089806;28;20106;-79
2021/12/28 03:20:42;;;;;;;28.05;13.35;;;;;;;-141.50;100.00;63355.56;5090597;28;20437;-80
2021/12/28 03:23:09;;;;;;;29.25;13.63;;;;;;;-141.50;100.00;63355.56;5089905;28;20110;-78
2021/12/28 03:25:36;;;;;;;31.17;14.27;;;;;;;-141.50;100.00;63355.56;5091856;28;20526;-80
2021/12/28 03:28:03;;;;;;;32.10;14.23;;;;;;;-141.50;100.00;63355.56;5092493;28;20052;-81
2021/12/28 03:30:29;;;;;;;30.77;14.23;;;;;;;-141.50;100.00;63355.56;5089180;28;20048;-81
2021/12/28 03:32:56;;;;;;;33.90;14.48;;;;;;;-141.50;100.00;63355.56;5088799;28;20066;-80
2021/12/28 03:35:23;;;;;;;32.10;14.80;;;;;;;-141.50;100.00;63355.56;5093266;28;20070;-81
2021/12/28 03:37:49;;;;;;;30.33;14.80;;;;;;;-141.50;100.00;63355.56;5110220;28;20040;-81
2021/12/28 03:40:17;;;;;;;31.98;14.52;;;;;;;-141.50;100.00;63355.56;5111691;28;20044;-78
2021/12/28 03:42:43;;;;;;;34.47;14.57;;;;;;;-141.50;100.00;63355.56;5091626;28;20557;-80
2021/12/28 03:45:12;;;;;;;29.60;14.07;;;;;;;-141.50;100.00;63355.56;5090306;28;20078;-80
2021/12/28 03:47:39;;;;;;;29.25;14.65;;;;;;;-141.50;100.00;63355.56;5087395;28;20040;-81
2021/12/28 03:50:07;;;;;;;29.75;14.23;;;;;;;-141.50;100.00;63355.56;5088800;28;20052;-79
2021/12/28 03:52:34;;;;;;;28.65;14.02;;;;;;;-141.50;100.00;63355.56;5089104;28;20048;-80
2021/12/28 03:55:00;;;;;;;30.05;13.90;;;;;;;-141.50;100.00;63355.56;5089649;28;20048;-81
2021/12/28 03:57:27;;;;;;;32.22;14.73;;;;;;;-141.50;100.00;63355.56;5086689;28;20048;-81
2021/12/28 03:59:54;;;;;;;28.63;13.77;;;;;;;-141.50;100.00;63355.56;5088702;28;20590;-80
2021/12/28 04:02:20;;;;;;;37.22;14.82;;;;;;;-141.50;100.00;63355.56;5088377;28;20043;-79
2021/12/28 04:04:47;;;;;;;30.15;14.30;;;;;;;-141.50;100.00;63355.56;5092341;28;20044;-79
2021/12/28 04:07:19;;;;;;;32.30;14.20;;;;;;;-141.50;100.00;63355.56;5091541;28;20063;-81
2021/12/28 04:12:13;;;;;;;29.52;14.45;;;;;;;-141.50;100.00;63355.56;5091007;28;20079;-79
2021/12/28 04:14:40;;;;;;;31.70;14.18;;;;;;;-141.50;100.00;63355.56;5089106;28;20043;-79
2021/12/28 04:17:06;;;;;;;29.70;13.90;;;;;;;-141.50;100.00;63355.56;5089675;28;20048;-78
2021/12/28 04:19:33;;;;;;;28.80;13.52;;;;;;;-141.50;100.00;63355.56;5090616;28;20051;-79
2021/12/28 04:21:59;;;;;;;27.17;13.20;;;;;;;-141.50;100.00;63355.56;5090907;28;20052;-77
2021/12/28 04:24:26;;;;;;;26.65;13.23;;;;;;;-141.50;100.00;63355.56;5089191;28;20048;-80
2021/12/28 04:26:52;;;;;;;27.20;13.57;;;;;;;-141.50;100.00;63355.56;5090701;28;20040;-80
2021/12/28 04:29:19;;;;;;;32.45;13.48;;;;;;;-141.50;100.00;63355.56;5088612;28;20488;-81
2021/12/28 04:31:46;;;;;;;28.08;13.07;;;;;;;-141.50;100.00;63355.56;5088946;28;20130;-79
2021/12/28 04:34:13;;;;;;;27.17;13.35;;;;;;;-141.50;100.00;63355.56;5088822;28;20079;-81
2021/12/28 04:36:40;;;;;;;30.77;13.55;;;;;;;-141.50;100.00;63355.56;5091246;28;20055;-81
2021/12/28 04:39:07;;;;;;;27.35;13.52;;;;;;;-141.50;100.00;63355.56;5089475;28;20151;-79
2021/12/28 04:41:34;;;;;;;28.27;13.50;;;;;;;-141.50;100.00;63355.56;5090029;28;20086;-78
2021/12/28 04:44:01;;;;;;;28.02;13.25;;;;;;;-141.50;100.00;63355.56;5088728;28;20048;-78
2021/12/28 04:46:29;;;;;;;29.08;12.98;;;;;;;-141.50;100.00;63355.56;5089456;28;20051;-80
2021/12/28 04:48:56;;;;;;;29.70;12.88;;;;;;;-141.50;100.00;63355.56;5088539;28;20591;-79
2021/12/28 04:51:26;;;;;;;29.83;12.50;;;;;;;-141.50;100.00;63355.56;5089842;28;20087;-81
2021/12/28 04:53:56;;;;;;;26.02;11.73;;;;;;;-141.50;100.00;63355.56;5088304;28;20052;-80
2021/12/28 04:56:23;;;;;;;27.67;12.48;;;;;;;-141.50;100.00;63355.56;5090278;28;20109;-81
2021/12/28 04:58:51;;;;;;;29.23;12.13;;;;;;;-141.50;100.00;63355.56;5090393;28;20084;-79
2021/12/28 05:01:18;;;;;;;29.05;11.93;;;;;;;-141.50;100.00;63355.56;5092192;28;20056;-80
2021/12/28 05:03:45;;;;;;;23.88;12.00;;;;;;;-141.50;100.00;63355.56;5093063;28;20635;-82
2021/12/28 05:06:11;;;;;;;24.63;11.68;;;;;;;-141.50;100.00;63355.56;5092041;28;20135;-80
2021/12/28 05:08:40;;;;;;;27.13;11.45;;;;;;;-141.50;100.00;63355.56;5090363;28;20064;-79
2021/12/28 05:11:06;;;;;;;22.67;10.52;;;;;;;-141.50;100.00;63355.56;5093342;28;20040;-81
2021/12/28 05:13:33;;;;;;;23.17;11.43;;;;;;;-141.50;100.00;63355.56;5093179;28;20098;-79
2021/12/28 05:15:59;;;;;;;26.58;10.98;;;;;;;-141.50;100.00;63355.56;5093490;28;20052;-80
2021/12/28 05:18:26;;;;;;;27.52;11.80;;;;;;;-141.50;100.00;63355.56;5093066;28;20044;-80
2021/12/28 05:20:52;;;;;;;23.58;10.77;;;;;;;-141.50;100.00;63355.56;5093028;28;20080;-80
2021/12/28 05:23:18;;;;;;;26.05;11.02;;;;;;;-141.50;100.00;63355.56;5093223;28;20078;-79
2021/12/28 05:25:45;;;;;;;23.65;10.52;;;;;;;-141.50;100.00;63355.56;5092398;28;20404;-82
2021/12/28 05:28:12;;;;;;;19.63;9.65;;;;;;;-141.50;100.00;63355.56;5093127;28;20647;-79
2021/12/28 05:30:39;;;;;;;24.25;10.90;;;;;;;-141.50;100.00;63355.56;5082743;28;20099;-79
2021/12/28 05:33:06;;;;;;;22.08;10.02;;;;;;;-141.50;100.00;63355.56;5072006;28;20080;-79
2021/12/28 05:35:33;;;;;;;22.73;10.18;;;;;;;-141.50;100.00;63355.56;5073649;28;20057;-79
2021/12/28 05:37:59;;;;;;;22.80;10.07;;;;;;;-141.50;100.00;63355.56;5072423;28;20053;-80
2021/12/28 05:40:26;;;;;;;21.38;10.45;;;;;;;-141.50;100.00;63355.56;5072157;28;20122;-81
2021/12/28 05:42:53;;;;;;;21.63;10.57;;;;;;;-141.50;100.00;63355.56;5072659;28;20080;-79
2021/12/28 05:45:20;;;;;;;20.08;9.63;;;;;;;-141.50;100.00;63355.56;5071818;28;20053;-80
2021/12/28 05:47:47;;;;;;;18.55;10.25;;;;;;;-141.50;100.00;63355.56;5070969;28;20040;-77
2021/12/28 05:50:13;;;;;;;22.40;10.05;;;;;;;-141.50;100.00;63355.56;5075904;28;20052;-80
2021/12/28 05:52:40;;;;;;;19.50;9.70;;;;;;;-141.50;100.00;63355.56;5075428;28;20052;-79
2021/12/28 05:55:07;;;;;;;20.23;10.10;;;;;;;-141.50;100.00;63355.56;5071973;28;20053;-81
2021/12/28 05:57:34;;;;;;;21.98;9.52;;;;;;;-141.50;100.00;63355.56;5072260;28;20098;-79
2021/12/28 06:00:01;;;;;;;21.73;9.95;;;;;;;-141.50;100.00;63355.56;5070973;28;20117;-79
2021/12/28 06:02:27;;;;;;;22.50;10.32;;;;;;;-141.50;100.00;63355.56;5070592;28;20048;-79
2021/12/28 06:04:54;;;;;;;20.27;9.85;;;;;;;-141.50;100.00;63355.56;5072911;28;20052;-80
2021/12/28 06:07:21;;;;;;;22.70;10.15;;;;;;;-141.50;100.00;63355.56;5072750;28;20084;-80
2021/12/28 06:09:48;;;;;;;19.38;10.27;;;;;;;-141.50;100.00;63355.56;5069320;28;20052;-80
2021/12/28 06:12:14;;;;;;;23.20;9.75;;;;;;;-141.50;100.00;63355.56;5070194;28;20052;-80
2021/12/28 06:14:41;;;;;;;18.98;9.32;;;;;;;-141.50;100.00;63355.56;5069384;28;20160;-80
2021/12/28 06:17:07;;;;;;;20.85;9.60;;;;;;;-141.50;100.00;63355.56;5070665;28;20071;-80
2021/12/28 06:19:34;;;;;;;17.63;8.43;;;;;;;-141.50;100.00;63355.56;5069714;28;20044;-80
2021/12/28 06:22:01;;;;;;;19.88;9.13;;;;;;;-141.50;100.00;63355.56;5072170;28;20109;-81
2021/12/28 06:24:28;;;;;;;17.60;9.00;;;;;;;-141.50;100.00;63355.56;5071760;28;20044;-80
2021/12/28 06:26:55;;;;;;;18.38;9.00;;;;;;;-141.50;100.00;63355.56;5072874;28;20048;-79
2021/12/28 06:29:22;;;;;;;17.30;8.65;;;;;;;-141.50;100.00;63355.56;5070752;28;20048;-79
2021/12/28 06:31:48;;;;;;;22.23;8.80;;;;;;;-141.50;100.00;63355.56;5071081;28;20094;-81
2021/12/28 06:34:15;;;;;;;17.95;8.77;;;;;;;-141.50;100.00;63355.56;5071823;28;20044;-80
2021/12/28 06:36:42;;;;;;;17.38;8.65;;;;;;;-141.50;100.00;63355.56;5071789;28;20554;-79
2021/12/28 06:39:10;;;;;;;18.42;9.07;;;;;;;-141.50;100.00;63355.56;5070509;28;20106;-80
2021/12/28 06:41:38;;;;;;;18.00;8.68;;;;;;;-141.50;100.00;63355.56;5067071;28;20563;-81
2021/12/28 06:44:07;;;;;;;17.73;8.70;;;;;;;-141.50;100.00;63355.56;5071911;28;20669;-79
2021/12/28 06:46:34;;;;;;;18.67;8.88;;;;;;;-141.50;100.00;63355.56;5067386;28;20122;-78
2021/12/28 06:49:00;;;;;;;18.85;8.65;;;;;;;-141.50;100.00;63355.56;5079387;28;20060;-80
2021/12/28 06:51:27;;;;;;;18.85;8.95;;;;;;;-141.50;100.00;63355.56;5075736;28;20079;-81
2021/12/28 06:53:53;;;;;;;20.75;7.82;;;;;;;-141.50;100.00;63355.56;5091786;28;20204;-79
2021/12/28 06:56:20;;;;;;;19.98;8.60;;;;;;;-141.50;100.00;63355.56;5089398;28;20059;-80
2021/12/28 06:58:46;;;;;;;19.70;8.55;;;;;;;-141.50;100.00;63355.56;5076964;28;20075;-79
2021/12/28 07:01:13;;;;;;;18.00;8.05;;;;;;;-141.50;100.00;63355.56;5086437;28;20090;-80
2021/12/28 07:03:40;;;;;;;20.73;8.63;;;;;;;-141.50;100.00;63355.56;5087386;28;20056;-78
2021/12/28 07:06:07;;;;;;;15.50;7.70;;;;;;;-141.50;100.00;63355.56;5086844;28;20048;-79
2021/12/28 07:08:37;;;;;;;21.02;8.00;;;;;;;-141.50;100.00;63355.56;5085650;28;20483;-81
2021/12/28 07:11:04;;;;;;;14.13;7.18;;;;;;;-141.50;100.00;63355.56;5088157;28;20067;-81
2021/12/28 07:13:31;;;;;;;14.13;7.70;;;;;;;-141.50;100.00;63355.56;5086837;28;20075;-77
2021/12/28 07:15:58;;;;;;;16.30;7.60;;;;;;;-141.50;100.00;63355.56;5085628;28;20083;-78
2021/12/28 07:18:24;;;;;;;16.15;8.20;;;;;;;-141.50;100.00;63355.56;5085230;28;20048;-80
2021/12/28 07:20:51;;;;;;;16.35;7.18;;;;;;;-141.50;100.00;63355.56;5083266;28;20078;-79
2021/12/28 07:23:18;;;;;;;17.70;7.65;;;;;;;-141.50;100.00;63355.56;5076349;28;20056;-80
2021/12/28 07:25:45;;;;;;;14.73;7.10;;;;;;;-141.50;100.00;63355.56;5074207;28;20143;-80
2021/12/28 07:28:13;;;;;;;13.13;6.32;;;;;;;-141.50;100.00;63355.56;5077736;28;20101;-78
2021/12/28 07:30:44;;;;;;;15.30;6.68;;;;;;;-141.50;100.00;63355.56;5075159;28;20052;-79
2021/12/28 07:33:10;;;;;;;14.73;7.13;;;;;;;-141.50;100.00;63355.56;5070846;28;20048;-79
2021/12/28 07:35:37;;;;;;;12.18;6.75;;;;;;;-141.50;100.00;63355.56;5074713;28;20472;-80
2021/12/28 07:38:03;;;;;;;14.13;6.60;;;;;;;-141.50;100.00;63355.56;5073858;28;20071;-79
2021/12/28 07:40:30;;;;;;;14.52;6.40;;;;;;;-141.50;100.00;63355.56;5072735;28;20083;-77
2021/12/28 07:42:57;;;;;;;18.05;6.82;;;;;;;-141.50;100.00;63355.56;5078301;28;20048;-78
2021/12/28 07:45:24;;;;;;;13.02;5.82;;;;;;;-141.50;100.00;63355.56;5072308;28;20096;-78
2021/12/28 07:47:51;;;;;;;16.05;6.82;;;;;;;-141.50;100.00;63355.56;5075668;28;20048;-78
2021/12/28 07:50:19;;;;;;;12.48;5.82;;;;;;;-141.50;100.00;63355.56;5075466;28;20055;-80
2021/12/28 07:52:47;;;;;;;11.50;5.82;;;;;;;-141.50;100.00;63355.56;5072201;28;20492;-80
2021/12/28 07:55:15;;;;;;;14.00;5.43;;;;;;;-141.50;100.00;63355.56;5066439;28;20109;-81
2021/12/28 07:57:42;;;;;;;12.32;5.97;;;;;;;-141.50;100.00;63355.56;5067248;28;20122;-80
2021/12/28 08:00:16;;;;;;;11.55;6.45;;;;;;;-141.50;100.00;63355.56;5065967;28;20585;-79
2021/12/28 08:02:44;;;;;;;11.77;5.50;;;;;;;-141.50;100.00;63355.56;5064333;28;20074;-79
2021/12/28 08:05:12;;;;;;;11.13;5.50;;;;;;;-141.50;100.00;63355.56;5066274;28;20056;-79
2021/12/28 08:07:39;;;;;;;11.57;6.20;;;;;;;-141.50;100.00;63355.56;5066246;28;20052;-78
2021/12/28 08:10:07;;;;;;;11.95;5.40;;;;;;;-141.50;100.00;63355.56;5072272;28;20134;-80
2021/12/28 08:12:33;;;;;;;11.60;6.00;;;;;;;-141.50;100.00;63355.56;5080371;28;20048;-79
2021/12/28 08:15:02;;;;;;;11.07;5.30;;;;;;;-141.50;100.00;63355.56;5084995;28;20048;-79
2021/12/28 08:17:30;;;;;;;12.35;5.43;;;;;;;-141.50;100.00;63355.56;5086414;28;20520;-80
2021/12/28 08:19:57;;;;;;;10.98;5.57;;;;;;;-141.50;100.00;63355.56;5086148;28;20071;-79
2021/12/28 08:22:23;;;;;;;11.48;5.68;;;;;;;-141.50;100.00;63355.56;5087558;28;20690;-81
2021/12/28 08:24:50;;;;;;;10.48;5.60;;;;;;;-141.50;100.00;63355.56;5085285;28;20064;-83
2021/12/28 08:27:17;;;;;;;12.95;5.72;;;;;;;-141.50;100.00;63355.56;5088063;28;20143;-83
2021/12/28 08:29:49;;;;;;;12.00;5.53;;;;;;;-141.50;100.00;63355.56;5075936;28;20203;-82
2021/12/28 08:32:18;;;;;;;12.55;6.03;;;;;;;-141.50;100.00;63355.56;5081807;28;20032;-81
2021/12/28 08:34:45;;;;;;;10.98;5.10;;;;;;;-141.50;100.00;63355.56;5085402;28;20074;-81
2021/12/28 08:37:16;;;;;;;12.55;5.57;;;;;;;-141.50;100.00;63355.56;5083216;28;20036;-81
2021/12/28 08:39:43;;;;;;;11.32;5.20;;;;;;;-141.50;100.00;63355.56;5092320;28;20109;-79
2021/12/28 08:42:09;;;;;;;14.98;6.43;;;;;;;-141.50;100.00;63355.56;5092247;28;20056;-80
2021/12/28 08:44:37;;;;;;;14.98;6.40;;;;;;;-141.50;100.00;63355.56;5092708;28;20056;-80
2021/12/28 08:47:04;;;;;;;16.08;6.15;;;;;;;-141.50;100.00;63355.56;5090489;28;20090;-82
2021/12/28 08:49:31;;;;;;;13.93;6.03;;;;;;;-141.50;100.00;63355.56;5092028;28;20070;-81
2021/12/28 08:52:00;;;;;;;14.32;6.30;;;;;;;-141.50;100.00;63355.56;5088529;28;20496;-81
2021/12/28 08:54:26;;;;;;;23.20;7.70;;;;;;;-141.50;100.00;63355.56;5086677;28;20217;-80
2021/12/28 08:56:53;;;;;;;25.70;10.57;;;;;;;-141.50;100.00;63355.56;5089314;28;20059;-80
2021/12/28 08:59:20;;;;;;;42.00;16.55;;;;;;;-141.50;100.00;63355.56;5087454;28;20048;-80
2021/12/28 09:01:48;;;;;;;51.42;18.40;;;;;;;-141.50;100.00;63355.56;5086186;28;20143;-79
2021/12/28 09:04:17;;;;;;;43.78;15.00;;;;;;;-141.50;100.00;63355.56;5086581;28;20048;-80
2021/12/28 09:06:47;;;;;;;14.23;6.20;;;;;;;-141.50;100.00;63355.56;5087313;28;20106;-81
2021/12/28 09:09:14;;;;;;;13.13;5.35;;;;;;;-141.50;100.00;63355.56;5087840;28;20478;-81
2021/12/28 09:11:43;;;;;;;15.90;5.93;;;;;;;-141.50;100.00;63355.56;5089507;28;20056;-80
2021/12/28 09:14:10;;;;;;;15.30;5.55;;;;;;;-141.50;100.00;63355.56;5074302;28;20400;-81
2021/12/28 09:16:36;;;;;;;14.32;4.90;;;;;;;-141.50;100.00;63355.56;5081488;28;20109;-80
2021/12/28 09:19:03;;;;;;;12.63;4.97;;;;;;;-141.50;100.00;63355.56;5088746;28;20048;-79
2021/12/28 09:21:30;;;;;;;12.65;5.10;;;;;;;-141.50;100.00;63355.56;5087526;28;20082;-80
2021/12/28 09:23:56;;;;;;;12.63;5.20;;;;;;;-141.50;100.00;63355.56;5085253;28;20529;-80
2021/12/28 09:26:43;;;;;;;14.32;5.07;;;;;;;-141.50;100.00;63355.56;5081784;28;20048;-78
2021/12/28 09:29:09;;;;;;;11.35;5.07;;;;;;;-141.50;100.00;63355.56;5074766;28;20040;-78
2021/12/28 09:31:36;;;;;;;13.68;5.53;;;;;;;-141.50;100.00;63355.56;5072213;28;20082;-79
2021/12/28 09:34:03;;;;;;;11.70;5.18;;;;;;;-141.50;100.00;63355.56;5064309;28;20048;-80
2021/12/28 09:36:49;;;;;;;14.20;5.38;;;;;;;-141.50;100.00;63355.56;5065319;28;20151;-80
2021/12/28 09:39:22;;;;;;;12.35;4.88;;;;;;;-141.50;100.00;63355.56;5067494;28;20076;-80
2021/12/28 09:41:51;;;;;;;12.13;4.97;;;;;;;-141.50;100.00;63355.56;5076309;28;20071;-79
2021/12/28 09:44:18;;;;;;;12.90;5.40;;;;;;;-141.50;100.00;63355.56;5074567;28;20093;-80
2021/12/28 09:46:49;;;;;;;12.75;5.82;;;;;;;-141.50;100.00;63355.56;5077670;28;20052;-79
2021/12/28 09:49:16;;;;;;;10.32;4.80;;;;;;;-141.50;100.00;63355.56;5079778;28;20059;-80
2021/12/28 09:51:43;;;;;;;12.77;5.75;;;;;;;-141.50;100.00;63355.56;5077163;28;20060;-79
2021/12/28 09:54:10;;;;;;;15.95;5.95;;;;;;;-141.50;100.00;63355.56;5076669;28;20139;-79
2021/12/28 09:56:37;;;;;;;15.10;5.85;;;;;;;-141.50;100.00;63355.56;5081465;28;20056;-79
2021/12/28 09:59:04;;;;;;;11.88;6.03;;;;;;;-141.50;100.00;63355.56;5076737;28;20500;-79
2021/12/28 10:01:31;;;;;;;16.15;7.22;;;;;;;-141.50;100.00;63355.56;5082386;28;20048;-79
2021/12/28 10:03:59;;;;;;;15.93;6.20;;;;;;;-141.50;100.00;63355.56;5093441;28;20070;-77
2021/12/28 10:06:28;;;;;;;15.93;6.75;;;;;;;-141.50;100.00;63355.56;5095434;28;20039;-77
2021/12/28 10:09:15;;;;;;;16.30;6.38;;;;;;;-141.50;100.00;63355.56;5086044;28;20049;-79
2021/12/28 10:11:50;;;;;;;15.63;6.55;;;;;;;-141.50;100.00;63355.56;5073123;28;20082;-78
2021/12/28 10:14:25;;;;;;;15.00;6.30;;;;;;;-141.50;100.00;63355.56;5068551;28;20114;-79
2021/12/28 10:17:04;;;;;;;14.93;6.18;;;;;;;-141.50;100.00;63355.56;5067863;28;20052;-78
2021/12/28 10:19:40;;;;;;;15.43;6.30;;;;;;;-141.50;100.00;63355.56;5069170;28;20044;-78
2021/12/28 10:22:31;;;;;;;16.20;6.82;;;;;;;-141.50;100.00;63355.56;5068058;28;20114;-79
2021/12/28 10:25:04;;;;;;;16.30;6.60;;;;;;;-141.50;100.00;63355.56;5069832;28;20053;-81
2021/12/28 10:27:31;;;;;;;16.23;6.68;;;;;;;-141.50;100.00;63355.56;5089510;28;20056;-81
2021/12/28 10:30:12;;;;;;;12.50;6.43;;;;;;;-141.50;100.00;63355.56;5085648;28;20069;-80
2021/12/28 10:32:42;;;;;;;30.60;7.25;;;;;;;-141.50;100.00;63355.56;5082943;28;20483;-79
2021/12/28 10:35:13;;;;;;;14.50;6.57;;;;;;;-141.50;100.00;63355.56;5087885;28;20089;-79
2021/12/28 10:37:43;;;;;;;21.63;6.97;;;;;;;-141.50;100.00;63355.56;5089705;28;20070;-79
2021/12/28 10:40:19;;;;;;;17.45;6.72;;;;;;;-141.50;100.00;63355.56;5088816;28;20087;-79
2021/12/28 10:43:10;;;;;;;14.82;6.53;;;;;;;-141.50;100.00;63355.56;5088638;28;20432;-80
2021/12/28 10:45:41;;;;;;;20.48;6.15;;;;;;;-141.50;100.00;63355.56;5086189;28;20503;-80
2021/12/28 10:48:18;;;;;;;16.65;6.13;;;;;;;-141.50;100.00;63355.56;5088535;28;20052;-79
2021/12/28 10:50:59;;;;;;;15.35;5.75;;;;;;;-141.50;100.00;63355.56;5088144;28;20128;-79
2021/12/28 10:53:55;;;;;;;13.13;6.50;;;;;;;-141.50;100.00;63355.56;5089137;28;20083;-80
2021/12/28 10:56:24;;;;;;;10.68;4.38;;;;;;;-141.50;100.00;63355.56;5088960;28;20147;-80
2021/12/28 10:58:51;;;;;;;13.70;5.30;;;;;;;-141.50;100.00;63355.56;5087957;28;20063;-80
2021/12/28 11:01:25;;;;;;;13.43;5.47;;;;;;;-141.50;100.00;63355.56;5086884;28;20055;-81
2021/12/28 11:03:55;;;;;;;14.07;4.85;;;;;;;-141.50;100.00;63355.56;5086527;28;20478;-82
2021/12/28 11:06:32;;;;;;;13.23;4.80;;;;;;;-141.50;100.00;63355.56;5088838;28;20520;-81
2021/12/28 11:09:03;;;;;;;16.27;5.20;;;;;;;-141.50;100.00;63355.56;5085431;28;20044;-81
2021/12/28 11:11:29;;;;;;;11.70;5.00;;;;;;;-141.50;100.00;63355.56;5088598;28;20052;-83